CST,Max TemperatureF,Mean TemperatureF,Min TemperatureF,Max Dew PointF,MeanDew PointF,Min DewpointF,Max Humidity, Mean Humidity, Min Humidity, Max Sea Level PressureIn, Mean Sea Level PressureIn, Min Sea Level PressureIn, Max VisibilityMiles, Mean VisibilityMiles, Min VisibilityMiles, Max Wind SpeedMPH, Mean Wind SpeedMPH, Max Gust SpeedMPH,PrecipitationIn, CloudCover, Events, WindDirDegrees
2011-12-1,66,51,35,43,38,34,92,63,34,30.35,30.26,30.19,10,8,2,8,2,15,0.00,0,,156
2011-12-2,69,53,36,52,41,36,100,69,37,30.39,30.34,30.27,10,6,0,9,3,15,0.00,1,Fog,113
2011-12-3,78,67,55,63,58,53,93,72,50,30.26,30.19,30.14,10,10,8,22,8,36,0.00,2,,123
2011-12-4,77,71,65,66,64,61,93,77,60,30.15,30.04,29.99,10,8,2,20,8,26,0.27,7,Rain,169
2011-12-5,75,61,47,68,63,44,100,90,79,30.09,29.96,29.92,10,9,2,20,10,28,0.14,8,Rain,217
2011-12-6,47,44,41,45,41,38,93,85,76,30.22,30.15,30.09,10,9,3,18,11,22,0.02,8,,350
2011-12-7,47,40,33,39,30,25,93,69,45,30.36,30.30,30.22,10,10,5,21,10,25,0.00,3,,330
2011-12-8,52,40,28,37,31,26,92,69,46,30.40,30.31,30.25,10,8,1,9,2,16,0.00,0,,21
2011-12-9,57,45,32,39,35,30,100,74,47,30.42,30.27,30.23,10,4,0,10,4,15,0.00,1,Fog,30
2011-12-10,57,47,37,36,34,32,92,68,43,30.50,30.43,30.38,10,10,10,20,9,25,0.00,0,,22
2011-12-11,54,47,39,34,32,28,76,59,41,30.43,30.37,30.31,10,10,10,15,8,18,0.00,2,,31
2011-12-12,63,49,35,52,44,32,93,79,65,30.35,30.31,30.27,10,9,4,7,2,9,0.00,2,,55
2011-12-13,71,60,49,58,53,48,100,81,61,30.38,30.32,30.27,10,5,0,10,4,18,0.00,4,Fog,99
2011-12-14,73,65,57,66,61,55,100,84,68,30.26,30.18,30.11,10,7,0,13,5,20,0.02,8,Fog-Rain,132
2011-12-15,78,73,67,68,66,64,100,84,67,30.14,30.10,30.05,10,7,0,15,5,22,0.00,7,Fog,166
2011-12-16,70,60,50,68,59,48,100,95,89,30.32,30.19,30.09,10,4,1,18,8,23,0.14,7,Rain,32
2011-12-17,62,53,43,47,40,30,93,63,32,30.43,30.37,30.31,10,9,3,15,9,21,0.00,4,,12
2011-12-18,64,50,35,39,35,33,92,63,34,30.43,30.35,30.25,10,10,10,10,3,14,0.00,0,,51
2011-12-19,71,57,42,55,49,37,84,69,53,30.22,30.08,29.99,10,10,10,16,5,24,0.00,1,,133
2011-12-20,73,66,58,68,62,56,100,90,79,29.98,29.93,29.86,10,7,1,18,6,28,0.11,6,Rain,200
2011-12-21,71,61,51,56,45,41,90,63,36,30.06,29.97,29.92,10,10,10,14,5,25,0.00,4,,2
2011-12-22,70,62,53,68,56,47,100,80,60,30.17,29.97,29.80,10,7,1,32,9,37,0.29,7,Rain,354
2011-12-23,55,52,49,49,47,43,89,82,74,30.33,30.26,30.17,10,10,6,18,12,23,0.00,8,,19
2011-12-24,56,51,46,45,43,41,86,76,66,30.36,30.31,30.25,10,10,9,17,10,21,T,7,Rain,39
2011-12-25,53,51,49,52,50,45,100,86,71,30.31,30.24,30.20,10,6,2,14,8,17,0.12,8,Rain,31
2011-12-26,57,51,45,55,52,42,100,93,86,30.20,30.12,30.02,10,5,1,20,5,25,0.70,8,Rain,269
2011-12-27,59,50,40,42,40,38,93,70,47,30.24,30.15,30.10,10,10,9,17,6,22,0.00,0,,283
2011-12-28,60,47,34,45,38,34,100,72,44,30.23,30.18,30.10,10,7,0,12,2,15,0.00,1,Fog,181
2011-12-29,69,56,42,55,49,41,100,77,53,30.10,30.03,29.96,10,10,6,12,4,17,0.00,1,,176
2011-12-30,76,64,52,63,57,52,100,77,53,30.07,30.02,29.95,10,5,0,18,5,25,0.01,3,Fog,229
2011-12-31,74,64,53,67,62,55,100,90,79,30.15,30.09,30.04,10,4,0,18,5,25,0.09,7,Fog-Rain,178